createdAt,value
2017-12-26T00:00:44.260Z,83.05
2017-12-26T00:01:44.257Z,83.24
2017-12-26T00:02:44.239Z,83.43
2017-12-26T00:03:44.540Z,80.96
2017-12-26T00:04:44.207Z,80.49
2017-12-26T00:05:44.190Z,82.39
2017-12-26T00:06:44.453Z,83.24
2017-12-26T00:07:44.147Z,83
2017-12-26T00:08:44.131Z,83.33
2017-12-26T00:09:44.390Z,82.9
2017-12-26T00:10:44.373Z,84.8
2017-12-26T00:11:44.086Z,83.75
2017-12-26T00:12:44.354Z,82.52
2017-12-26T00:13:44.040Z,84.61
2017-12-26T00:14:44.400Z,85.36
2017-12-26T00:15:44.020Z,86.6
2017-12-26T00:16:43.998Z,87.16
2017-12-26T00:17:43.977Z,87.35
2017-12-26T00:18:44.245Z,87.54
2017-12-26T00:19:44.215Z,87.07
2017-12-26T00:20:44.202Z,88.59
2017-12-26T00:21:43.925Z,88.68
2017-12-26T00:22:44.176Z,89.06
2017-12-26T00:23:43.900Z,88.02
2017-12-26T00:24:44.164Z,86.22
2017-12-26T00:25:43.847Z,86.41
2017-12-26T00:26:43.844Z,88.11
2017-12-26T00:27:43.826Z,87.83
2017-12-26T00:28:43.801Z,87.64
2017-12-26T00:29:44.077Z,87.45
2017-12-26T00:30:43.770Z,87.45
2017-12-26T00:31:44.027Z,88.49
2017-12-26T00:32:43.738Z,88.21
2017-12-26T00:33:43.997Z,88.59
2017-12-26T00:34:43.704Z,88.59
2017-12-26T00:35:43.964Z,88.11
2017-12-26T00:36:43.965Z,88.02
2017-12-26T00:37:43.721Z,88.49
2017-12-26T00:38:43.640Z,88.49
2017-12-26T00:39:43.913Z,89.82
2017-12-26T00:40:43.611Z,89.53
2017-12-26T00:41:43.864Z,91.14
2017-12-26T00:42:43.852Z,90.29
2017-12-26T00:43:43.836Z,90.48
2017-12-26T00:44:43.821Z,90.39
2017-12-26T00:45:43.541Z,91.62
2017-12-26T00:46:43.786Z,92.09
2017-12-26T00:47:43.637Z,90.67
2017-12-26T00:48:43.606Z,90.39
2017-12-26T00:49:43.576Z,92.47
2017-12-26T00:50:43.659Z,91.43
2017-12-26T00:51:43.558Z,91.24
2017-12-26T00:52:43.904Z,91.9
2017-12-26T00:53:43.544Z,92.28
2017-12-26T00:54:43.511Z,92.66
2017-12-26T00:55:43.556Z,92.85
2017-12-26T00:56:43.482Z,92.76
2017-12-26T00:57:43.467Z,92.66
2017-12-26T00:58:43.475Z,92.19
2017-12-26T00:59:43.312Z,92.19
2017-12-26T01:00:43.608Z,92
2017-12-26T01:01:43.279Z,92.66
2017-12-26T01:02:43.285Z,92.47
2017-12-26T01:03:43.518Z,92.38
2017-12-26T01:04:43.235Z,92.47
2017-12-26T01:05:43.227Z,92.28
2017-12-26T01:06:43.206Z,92.85
2017-12-26T01:07:43.196Z,90.39
2017-12-26T01:08:43.177Z,90.2
2017-12-26T01:09:43.152Z,90.39
2017-12-26T01:10:43.137Z,90.29
2017-12-26T01:11:43.393Z,88.3
2017-12-26T01:12:43.378Z,89.63
2017-12-26T01:13:43.411Z,89.44
2017-12-26T01:14:43.075Z,88.3
2017-12-26T01:15:43.062Z,89.25
2017-12-26T01:16:43.064Z,88.78
2017-12-26T01:17:43.027Z,88.11
2017-12-26T01:18:43.298Z,87.54
2017-12-26T01:19:42.993Z,86.31
2017-12-26T01:20:43.257Z,85.93
2017-12-26T01:21:43.233Z,87.02
2017-12-26T01:22:42.951Z,85.99
2017-12-26T01:23:42.931Z,85.93
2017-12-26T01:24:42.967Z,86.46
2017-12-26T01:25:42.901Z,85.04
2017-12-26T01:26:42.884Z,84.94
2017-12-26T01:27:42.869Z,85.99
2017-12-26T01:28:42.860Z,86.36
2017-12-26T01:29:42.838Z,85.89
2017-12-26T01:30:42.840Z,85.42
2017-12-26T01:31:42.804Z,85.89
2017-12-26T01:32:42.790Z,86.36
2017-12-26T01:33:42.781Z,86.93
2017-12-26T01:34:42.762Z,85.99
2017-12-26T01:35:43.018Z,85.42
2017-12-26T01:36:42.724Z,85.89
2017-12-26T01:37:42.710Z,85.23
2017-12-26T01:38:42.695Z,87.21
2017-12-26T01:39:42.951Z,84.75
2017-12-26T01:40:42.675Z,85.51
2017-12-26T01:41:42.648Z,87.5
2017-12-26T01:42:42.630Z,86.36
2017-12-26T01:43:42.612Z,87.4
2017-12-26T01:44:42.598Z,88.26
2017-12-26T01:45:42.855Z,87.78
2017-12-26T01:46:42.833Z,89.39
2017-12-26T01:47:42.549Z,87.5
2017-12-26T01:48:42.532Z,88.64
2017-12-26T01:49:42.809Z,89.3
2017-12-26T01:50:42.792Z,90.72
2017-12-26T01:51:42.756Z,91.62
2017-12-26T01:52:42.467Z,91.81
2017-12-26T01:53:42.452Z,93.32
2017-12-26T01:54:42.707Z,91.43
2017-12-26T01:55:42.435Z,91.81
2017-12-26T01:56:42.405Z,93.61
2017-12-26T01:57:42.387Z,93.32
2017-12-26T01:58:42.388Z,92.57
2017-12-26T01:59:42.356Z,90.95
2017-12-26T02:00:42.342Z,90.67
2017-12-26T02:01:42.324Z,89.91
2017-12-26T02:02:42.579Z,88.02
2017-12-26T02:03:42.568Z,87.26
2017-12-26T02:04:42.276Z,88.68
2017-12-26T02:05:42.258Z,88.3
2017-12-26T02:06:42.245Z,88.68
2017-12-26T02:07:42.227Z,89.72
2017-12-26T02:08:42.213Z,89.34
2017-12-26T02:09:42.194Z,89.34
2017-12-26T02:10:42.185Z,88.78
2017-12-26T02:11:42.436Z,87.92
2017-12-26T02:12:42.149Z,87.16
2017-12-26T02:13:42.401Z,89.34
2017-12-26T02:14:42.150Z,90.29
2017-12-26T02:15:42.375Z,90.29
2017-12-26T02:16:42.095Z,91.05
2017-12-26T02:17:42.363Z,89.06
2017-12-26T02:18:42.324Z,90.39
2017-12-26T02:19:42.310Z,89.53
2017-12-26T02:20:42.297Z,90.58
2017-12-26T02:21:42.279Z,90.48
2017-12-26T02:22:41.989Z,90.1
2017-12-26T02:23:41.972Z,90.58
2017-12-26T02:24:41.958Z,90.48
2017-12-26T02:25:41.941Z,91.43
2017-12-26T02:26:42.215Z,90.86
2017-12-26T02:27:42.180Z,91.14
2017-12-26T02:28:41.893Z,92.66
2017-12-26T02:29:41.880Z,92.28
2017-12-26T02:30:41.863Z,93.61
2017-12-26T02:31:41.849Z,94.56
2017-12-26T02:32:41.834Z,94.65
2017-12-26T02:33:42.091Z,93.89
2017-12-26T02:34:42.073Z,93.99
2017-12-26T02:35:41.784Z,93.32
2017-12-26T02:36:41.773Z,91.52
2017-12-26T02:37:42.041Z,86.6
2017-12-26T02:38:41.735Z,84.7
2017-12-26T02:39:41.780Z,83.18
2017-12-26T02:40:41.708Z,82.52
2017-12-26T02:41:41.689Z,82.62
2017-12-26T02:42:41.944Z,81.95
2017-12-26T02:43:41.658Z,81.86
2017-12-26T02:44:41.916Z,81.76
2017-12-26T02:45:41.626Z,81.01
2017-12-26T02:46:41.889Z,81.1
2017-12-26T02:47:41.595Z,80.25
2017-12-26T02:48:41.578Z,82.14
2017-12-26T02:49:41.580Z,82.62
2017-12-26T02:50:41.824Z,82.62
2017-12-26T02:51:41.540Z,82.43
2017-12-26T02:52:41.788Z,83.85
2017-12-26T02:53:41.532Z,84.13
2017-12-26T02:54:41.486Z,82.24
2017-12-26T02:55:41.756Z,81.76
2017-12-26T02:56:41.453Z,81.67
2017-12-26T02:57:41.452Z,80.44
2017-12-26T02:58:41.432Z,80.25
2017-12-26T02:59:41.695Z,80.06
2017-12-26T03:00:41.669Z,80.53
2017-12-26T03:01:41.649Z,79.68
2017-12-26T03:02:41.640Z,78.35
2017-12-26T03:03:41.627Z,78.54
2017-12-26T03:04:41.327Z,78.73
2017-12-26T03:05:41.594Z,79.11
2017-12-26T03:06:41.296Z,78.45
2017-12-26T03:07:41.278Z,79.21
2017-12-26T03:08:41.284Z,78.64
2017-12-26T03:09:41.248Z,80.06
2017-12-26T03:10:41.524Z,80.34
2017-12-26T03:11:41.485Z,80.44
2017-12-26T03:12:41.476Z,79.68
2017-12-26T03:13:41.454Z,79.68
2017-12-26T03:14:41.455Z,79.58
2017-12-26T03:15:41.151Z,80.06
2017-12-26T03:16:41.137Z,79.68
2017-12-26T03:17:41.137Z,80.15
2017-12-26T03:18:41.114Z,80.25
2017-12-26T03:19:41.377Z,81.86
2017-12-26T03:20:41.074Z,81.95
2017-12-26T03:21:41.064Z,82.62
2017-12-26T03:22:41.313Z,82.71
2017-12-26T03:23:41.301Z,83.85
2017-12-26T03:24:41.011Z,84.23
2017-12-26T03:25:40.994Z,85.08
2017-12-26T03:26:40.979Z,84.32
2017-12-26T03:27:40.964Z,84.89
2017-12-26T03:28:40.949Z,84.8
2017-12-26T03:29:40.934Z,84.32
2017-12-26T03:30:41.197Z,82.9
2017-12-26T03:31:40.905Z,82.43
2017-12-26T03:32:40.886Z,83
2017-12-26T03:33:40.870Z,83.09
2017-12-26T03:34:41.147Z,82.14
2017-12-26T03:35:41.112Z,82.71
2017-12-26T03:36:41.099Z,82.62
2017-12-26T03:37:41.081Z,82.71
2017-12-26T03:38:40.798Z,81.95
2017-12-26T03:39:41.047Z,81.2
2017-12-26T03:40:40.761Z,81.76
2017-12-26T03:41:40.745Z,80.34
2017-12-26T03:42:40.728Z,82.05
2017-12-26T03:43:40.712Z,82.14
2017-12-26T03:44:40.696Z,81.86
2017-12-26T03:45:40.682Z,80.63
2017-12-26T03:46:40.664Z,80.63
2017-12-26T03:47:40.701Z,82.52
2017-12-26T03:48:40.904Z,82.14
2017-12-26T03:49:40.889Z,82.62
2017-12-26T03:50:40.602Z,81.95
2017-12-26T03:51:40.586Z,79.87
2017-12-26T03:52:40.839Z,81.67
2017-12-26T03:53:40.557Z,81.1
2017-12-26T03:54:40.538Z,80.63
2017-12-26T03:55:40.530Z,80.63
2017-12-26T03:56:40.505Z,79.39
2017-12-26T03:57:40.490Z,79.21
2017-12-26T03:58:40.526Z,78.73
2017-12-26T03:59:40.729Z,77.69
2017-12-26T04:00:40.717Z,78.07
2017-12-26T04:01:40.443Z,77.88
2017-12-26T04:02:40.689Z,77.4
2017-12-26T04:03:40.674Z,77.88
2017-12-26T04:04:40.379Z,77.59
2017-12-26T04:05:40.386Z,75.98
2017-12-26T04:06:40.349Z,76.08
2017-12-26T04:07:40.340Z,75.79
2017-12-26T04:08:40.317Z,75.23
2017-12-26T04:09:40.299Z,76.08
2017-12-26T04:10:40.299Z,75.32
2017-12-26T04:11:40.271Z,74.85
2017-12-26T04:12:40.254Z,74.66
2017-12-26T04:13:40.511Z,73.58
2017-12-26T04:14:40.219Z,73.2
2017-12-26T04:15:40.222Z,72.92
2017-12-26T04:16:40.191Z,72.82
2017-12-26T04:17:40.174Z,73.11
2017-12-26T04:18:40.160Z,73.9
2017-12-26T04:19:40.145Z,73.71
2017-12-26T04:20:40.146Z,73.8
2017-12-26T04:21:40.113Z,73.52
2017-12-26T04:22:40.095Z,74.09
2017-12-26T04:23:40.080Z,73.71
2017-12-26T04:24:40.063Z,74.24
2017-12-26T04:25:40.046Z,74.66
2017-12-26T04:26:40.311Z,74.56
2017-12-26T04:27:40.016Z,74.47
2017-12-26T04:28:39.997Z,74.28
2017-12-26T04:29:39.988Z,75.51
2017-12-26T04:30:39.968Z,75.6
2017-12-26T04:31:39.950Z,76.04
2017-12-26T04:32:39.938Z,76.17
2017-12-26T04:33:40.197Z,75.89
2017-12-26T04:34:39.904Z,75.98
2017-12-26T04:35:39.889Z,76.27
2017-12-26T04:36:39.872Z,76.7
2017-12-26T04:37:39.859Z,76.27
2017-12-26T04:38:40.122Z,76.42
2017-12-26T04:39:39.844Z,77.97
2017-12-26T04:40:39.808Z,76.99
2017-12-26T04:41:39.795Z,77.56
2017-12-26T04:42:39.799Z,78.54
2017-12-26T04:43:39.766Z,78.54
2017-12-26T04:44:39.744Z,78.59
2017-12-26T04:45:39.728Z,78.07
2017-12-26T04:46:39.712Z,78.13
2017-12-26T04:47:39.697Z,78.26
2017-12-26T04:48:39.684Z,78.69
2017-12-26T04:49:39.948Z,78.54
2017-12-26T04:50:39.651Z,77.12
2017-12-26T04:51:39.904Z,77.78
2017-12-26T04:52:39.895Z,77.78
2017-12-26T04:53:39.601Z,77.4
2017-12-26T04:54:39.601Z,77.31
2017-12-26T04:55:39.580Z,76.74
2017-12-26T04:56:39.554Z,76.84
2017-12-26T04:57:39.538Z,75.42
2017-12-26T04:58:39.526Z,76.55
2017-12-26T04:59:39.778Z,77.5
2017-12-26T05:00:39.503Z,76.74
2017-12-26T05:01:39.475Z,76.84
2017-12-26T05:02:39.462Z,77.22
2017-12-26T05:03:39.444Z,77.22
2017-12-26T05:04:39.704Z,77.5
2017-12-26T05:05:39.414Z,76.46
2017-12-26T05:06:39.403Z,77.4
2017-12-26T05:07:39.651Z,77.22
2017-12-26T05:08:39.635Z,77.88
2017-12-26T05:09:39.368Z,77.78
2017-12-26T05:10:39.337Z,78.54
2017-12-26T05:11:39.316Z,78.07
2017-12-26T05:12:39.303Z,77.4
2017-12-26T05:13:39.288Z,78.73
2017-12-26T05:14:39.271Z,78.73
2017-12-26T05:15:39.255Z,78.35
2017-12-26T05:16:39.239Z,79.02
2017-12-26T05:17:39.495Z,79.58
2017-12-26T05:18:39.491Z,79.49
2017-12-26T05:19:39.191Z,80.15
2017-12-26T05:20:39.476Z,80.06
2017-12-26T05:21:39.161Z,80.06
2017-12-26T05:22:39.420Z,79.49
2017-12-26T05:23:39.129Z,79.87
2017-12-26T05:24:39.113Z,80.53
2017-12-26T05:25:39.098Z,80.44
2017-12-26T05:26:39.130Z,81.38
2017-12-26T05:27:39.346Z,81.1
2017-12-26T05:28:39.342Z,80.34
2017-12-26T05:29:39.034Z,80.06
2017-12-26T05:30:39.020Z,79.49
2017-12-26T05:31:39.003Z,80.57
2017-12-26T05:32:39.008Z,79.96
2017-12-26T05:33:38.972Z,80.53
2017-12-26T05:34:38.959Z,80.44
2017-12-26T05:35:39.215Z,80.29
2017-12-26T05:36:38.928Z,80.38
2017-12-26T05:37:38.983Z,81.99
2017-12-26T05:38:39.177Z,80.76
2017-12-26T05:39:39.160Z,81.24
2017-12-26T05:40:39.144Z,81.9
2017-12-26T05:41:38.848Z,82.09
2017-12-26T05:42:38.833Z,82.37
2017-12-26T05:43:38.819Z,82.09
2017-12-26T05:44:38.818Z,82.09
2017-12-26T05:45:38.788Z,83.32
2017-12-26T05:46:38.773Z,82.94
2017-12-26T05:47:39.027Z,82.85
2017-12-26T05:48:39.062Z,82.85
2017-12-26T05:49:39.000Z,82.47
2017-12-26T05:50:38.713Z,82.28
2017-12-26T05:51:38.969Z,81.99
2017-12-26T05:52:38.678Z,82.47
2017-12-26T05:53:38.937Z,83.42
2017-12-26T05:54:38.941Z,83.04
2017-12-26T05:55:38.633Z,83.32
2017-12-26T05:56:38.893Z,82.28
2017-12-26T05:57:38.602Z,82.66
2017-12-26T05:58:38.591Z,83.51
2017-12-26T05:59:38.586Z,83.89
2017-12-26T06:00:38.557Z,84.17
2017-12-26T06:01:38.817Z,83.04
2017-12-26T06:02:38.526Z,82.94
2017-12-26T06:03:38.517Z,83.13
2017-12-26T06:04:38.534Z,83.8
2017-12-26T06:05:38.481Z,84.55
2017-12-26T06:06:38.466Z,83.51
2017-12-26T06:07:38.724Z,83.13
2017-12-26T06:08:38.713Z,83.04
2017-12-26T06:09:38.422Z,82.28
2017-12-26T06:10:38.406Z,82.66
2017-12-26T06:11:38.665Z,82.56
2017-12-26T06:12:38.375Z,82.37
2017-12-26T06:13:38.360Z,83.32
2017-12-26T06:14:38.343Z,83.61
2017-12-26T06:15:38.330Z,84.08
2017-12-26T06:16:38.316Z,83.04
2017-12-26T06:17:38.298Z,83.13
2017-12-26T06:18:38.292Z,84.08
2017-12-26T06:19:38.270Z,82.56
2017-12-26T06:20:38.262Z,82.85
2017-12-26T06:21:38.251Z,83.42
2017-12-26T06:22:38.222Z,83.04
2017-12-26T06:23:38.214Z,82.75
2017-12-26T06:24:38.192Z,82.94
2017-12-26T06:25:38.181Z,83.42
2017-12-26T06:26:38.164Z,83.04
2017-12-26T06:27:38.416Z,82.94
2017-12-26T06:28:38.132Z,82.56
2017-12-26T06:29:38.116Z,82.56
2017-12-26T06:30:38.102Z,81.81
2017-12-26T06:31:38.107Z,80.67
2017-12-26T06:32:38.343Z,81.99
2017-12-26T06:33:38.057Z,82.18
2017-12-26T06:34:38.315Z,82.18
2017-12-26T06:35:38.031Z,81.62
2017-12-26T06:36:38.012Z,81.05
2017-12-26T06:37:38.005Z,80.29
2017-12-26T06:38:37.985Z,80.19
2017-12-26T06:39:38.244Z,80
2017-12-26T06:40:37.952Z,79.82
2017-12-26T06:41:37.958Z,79.63
2017-12-26T06:42:37.925Z,79.15
2017-12-26T06:43:38.179Z,78.58
2017-12-26T06:44:38.174Z,77.45
2017-12-26T06:45:38.147Z,78.11
2017-12-26T06:46:37.860Z,78.2
2017-12-26T06:47:37.847Z,78.2
2017-12-26T06:48:37.864Z,77.54
2017-12-26T06:49:38.088Z,76.87
2017-12-26T06:50:37.813Z,76.87
2017-12-26T06:51:37.785Z,76.31
2017-12-26T06:52:37.792Z,76.21
2017-12-26T06:53:38.029Z,75.17
2017-12-26T06:54:37.739Z,74.6
2017-12-26T06:55:37.727Z,73.52
2017-12-26T06:56:37.983Z,72.67
2017-12-26T06:57:37.967Z,72.77
2017-12-26T06:58:37.682Z,72.48
2017-12-26T06:59:37.671Z,72.57
2017-12-26T07:00:37.922Z,71.81
2017-12-26T07:01:37.635Z,71.53
2017-12-26T07:02:37.617Z,71.25
2017-12-26T07:03:38.078Z,70.49
2017-12-26T07:04:37.590Z,68.4
2017-12-26T07:05:37.574Z,67.55
2017-12-26T07:06:37.829Z,67.08
2017-12-26T07:07:37.824Z,66.03
2017-12-26T07:08:37.801Z,65.47
2017-12-26T07:09:37.513Z,64.42
2017-12-26T07:10:37.773Z,63.76
2017-12-26T07:11:37.485Z,64.61
2017-12-26T07:12:37.737Z,64.52
2017-12-26T07:13:37.469Z,62.91
2017-12-26T07:14:37.710Z,62.91
2017-12-26T07:15:37.420Z,63.29
2017-12-26T07:16:37.405Z,63.2
2017-12-26T07:17:37.391Z,63.57
2017-12-26T07:18:37.394Z,62.05
2017-12-26T07:19:37.374Z,61.3
2017-12-26T07:20:37.341Z,62.34
2017-12-26T07:21:37.343Z,61.96
2017-12-26T07:22:37.322Z,63.85
2017-12-26T07:23:37.296Z,62.91
2017-12-26T07:24:37.294Z,64.71
2017-12-26T07:25:37.535Z,64.23
2017-12-26T07:26:37.522Z,64.14
2017-12-26T07:27:37.292Z,63.67
2017-12-26T07:28:37.219Z,62.24
2017-12-26T07:29:37.204Z,63.85
2017-12-26T07:30:37.467Z,65.75
2017-12-26T07:31:37.170Z,65.75
2017-12-26T07:32:37.172Z,65.66
2017-12-26T07:33:37.425Z,65.09
2017-12-26T07:34:37.126Z,64.42
2017-12-26T07:35:37.394Z,64.23
2017-12-26T07:36:37.094Z,64.14
2017-12-26T07:37:37.079Z,60.92
2017-12-26T07:38:37.065Z,60.25
2017-12-26T07:39:37.046Z,59.97
2017-12-26T07:40:37.033Z,58.55
2017-12-26T07:41:37.016Z,58.45
2017-12-26T07:42:37.280Z,57.79
2017-12-26T07:43:36.997Z,57.7
2017-12-26T07:44:36.972Z,57.42
2017-12-26T07:45:37.229Z,57.42
2017-12-26T07:46:36.941Z,57.04
2017-12-26T07:47:37.198Z,56.37
2017-12-26T07:48:36.910Z,57.04
2017-12-26T07:49:36.910Z,57.06
2017-12-26T07:50:36.879Z,55.93
2017-12-26T07:51:37.133Z,55.64
2017-12-26T07:52:36.844Z,56.4
2017-12-26T07:53:37.132Z,55.74
2017-12-26T07:54:36.819Z,55.07
2017-12-26T07:55:37.111Z,56.3
2017-12-26T07:56:36.785Z,56.3
2017-12-26T07:57:37.063Z,56.3
2017-12-26T07:58:36.758Z,55.55
2017-12-26T07:59:36.742Z,55.64
2017-12-26T08:00:36.724Z,55.64
2017-12-26T08:01:36.710Z,56.68
2017-12-26T08:02:36.712Z,57.35
2017-12-26T08:03:36.677Z,57.64
2017-12-26T08:04:36.979Z,58.2
2017-12-26T08:05:36.649Z,58.77
2017-12-26T08:06:36.904Z,57.44
2017-12-26T08:07:36.618Z,58.39
2017-12-26T08:08:36.603Z,58.48
2017-12-26T08:09:36.588Z,57.64
2017-12-26T08:10:36.843Z,57.64
2017-12-26T08:11:36.559Z,57.35
2017-12-26T08:12:36.542Z,56.78
2017-12-26T08:13:36.804Z,56.59
2017-12-26T08:14:36.511Z,56.87
2017-12-26T08:15:36.511Z,56.4
2017-12-26T08:16:36.490Z,56.4
2017-12-26T08:17:36.788Z,56.49
2017-12-26T08:18:36.458Z,54.79
2017-12-26T08:19:36.708Z,54.32
2017-12-26T08:20:36.695Z,53.08
2017-12-26T08:21:36.692Z,51.76
2017-12-26T08:22:36.392Z,51.76
2017-12-26T08:23:36.377Z,50.81
2017-12-26T08:24:36.632Z,51.76
2017-12-26T08:25:36.346Z,52.14
2017-12-26T08:26:36.603Z,51.85
2017-12-26T08:27:36.319Z,51.37
2017-12-26T08:28:36.330Z,51.28
2017-12-26T08:29:36.288Z,51.57
2017-12-26T08:30:36.273Z,51.85
2017-12-26T08:31:36.259Z,52.45
2017-12-26T08:32:36.241Z,52.04
2017-12-26T08:33:36.228Z,52.51
2017-12-26T08:34:36.488Z,51.57
2017-12-26T08:35:36.200Z,50.99
2017-12-26T08:36:36.183Z,50.45
2017-12-26T08:37:36.443Z,50.26
2017-12-26T08:38:36.154Z,50.74
2017-12-26T08:39:36.412Z,49.98
2017-12-26T08:40:36.599Z,50.36
2017-12-26T08:41:36.110Z,51.21
2017-12-26T08:42:36.096Z,51.21
2017-12-26T08:43:36.364Z,52.45
2017-12-26T08:44:36.066Z,53.39
2017-12-26T08:45:36.054Z,53.49
2017-12-26T08:46:36.309Z,53.68
2017-12-26T08:47:36.294Z,54.53
2017-12-26T08:48:36.017Z,54.82
2017-12-26T08:49:35.996Z,55.38
2017-12-26T08:50:36.267Z,55.67
2017-12-26T08:51:35.985Z,56.34
2017-12-26T08:52:36.222Z,56.34
2017-12-26T08:53:35.936Z,57.76
2017-12-26T08:54:35.932Z,58.51
2017-12-26T08:55:36.180Z,59.08
2017-12-26T08:56:35.892Z,60.41
2017-12-26T08:57:35.884Z,60.7
2017-12-26T08:58:36.140Z,62.02
2017-12-26T08:59:35.849Z,61.74
2017-12-26T09:00:36.107Z,61.74
2017-12-26T09:01:36.091Z,62.4
2017-12-26T09:02:35.804Z,60.98
2017-12-26T09:03:35.792Z,61.27
2017-12-26T09:04:35.788Z,62.21
2017-12-26T09:05:36.041Z,61.74
2017-12-26T09:06:35.760Z,62.59
2017-12-26T09:07:36.004Z,62.4
2017-12-26T09:08:35.721Z,62.4
2017-12-26T09:09:35.705Z,61.55
2017-12-26T09:10:35.690Z,61.08
2017-12-26T09:11:35.699Z,60.89
2017-12-26T09:12:35.663Z,60.89
2017-12-26T09:13:35.649Z,62.69
2017-12-26T09:14:35.638Z,62.5
2017-12-26T09:15:35.622Z,62.5
2017-12-26T09:16:35.877Z,62.59
2017-12-26T09:17:35.595Z,62.4
2017-12-26T09:18:35.575Z,62.21
2017-12-26T09:19:35.835Z,61.96
2017-12-26T09:20:35.547Z,63.17
2017-12-26T09:21:35.532Z,61.83
2017-12-26T09:22:35.832Z,62.12
2017-12-26T09:23:35.507Z,63.92
2017-12-26T09:24:35.499Z,64.87
2017-12-26T09:25:35.493Z,63.35
2017-12-26T09:26:35.462Z,64.49
2017-12-26T09:27:35.454Z,65.06
2017-12-26T09:28:35.449Z,65.16
2017-12-26T09:29:35.421Z,65.44
2017-12-26T09:30:35.681Z,64.4
2017-12-26T09:31:35.395Z,63.54
2017-12-26T09:32:35.382Z,62.4
2017-12-26T09:33:35.381Z,62.97
2017-12-26T09:34:35.621Z,62.59
2017-12-26T09:35:35.334Z,63.35
2017-12-26T09:36:35.593Z,63.92
2017-12-26T09:37:35.309Z,63.92
2017-12-26T09:38:35.583Z,64.49
2017-12-26T09:39:35.279Z,65.72
2017-12-26T09:40:35.540Z,65.44
2017-12-26T09:41:35.248Z,65.44
2017-12-26T09:42:35.239Z,65.82
2017-12-26T09:43:35.493Z,65.53
2017-12-26T09:44:35.208Z,66.2
2017-12-26T09:45:35.191Z,66.39
2017-12-26T09:46:35.476Z,67.14
2017-12-26T09:47:35.441Z,67.33
2017-12-26T09:48:35.197Z,67.24
2017-12-26T09:49:35.202Z,66.86
2017-12-26T09:50:35.423Z,67.14
2017-12-26T09:51:35.230Z,65.91
2017-12-26T09:52:35.188Z,67.14
2017-12-26T09:53:35.343Z,67.24
2017-12-26T09:54:35.498Z,68.1
2017-12-26T09:55:35.114Z,68.1
2017-12-26T09:56:35.504Z,67.62
2017-12-26T09:57:35.110Z,67.14
2017-12-26T09:58:35.193Z,67.71
2017-12-26T09:59:35.382Z,67.62
2017-12-26T10:00:35.301Z,66.96
2017-12-26T10:01:35.007Z,66.2
2017-12-26T10:02:35.267Z,66.29
2017-12-26T10:03:34.962Z,65.16
2017-12-26T10:04:34.994Z,65.16
2017-12-26T10:05:35.005Z,65.91
2017-12-26T10:06:35.171Z,65.44
2017-12-26T10:07:35.000Z,65.16
2017-12-26T10:08:35.143Z,64.87
2017-12-26T10:09:34.978Z,66.39
2017-12-26T10:10:34.953Z,67.14
2017-12-26T10:11:34.825Z,67.05
2017-12-26T10:12:35.035Z,67.81
2017-12-26T10:13:35.128Z,67.43
2017-12-26T10:14:35.176Z,66.39
2017-12-26T10:15:34.918Z,67.62
2017-12-26T10:16:34.927Z,67.33
2017-12-26T10:17:34.857Z,66.01
2017-12-26T10:18:35.257Z,65.44
2017-12-26T10:19:35.013Z,66.01
2017-12-26T10:20:34.905Z,67.05
2017-12-26T10:21:34.852Z,67.14
2017-12-26T10:22:35.140Z,68.19
2017-12-26T10:23:35.156Z,67.81
2017-12-26T10:24:35.090Z,69.42
2017-12-26T10:25:35.101Z,68.38
2017-12-26T10:26:36.246Z,68.19
2017-12-26T10:27:35.287Z,69.8
2017-12-26T10:28:35.457Z,69.52
2017-12-26T10:29:34.976Z,69.99
2017-12-26T10:30:35.022Z,69.42
2017-12-26T10:31:34.713Z,70.47
2017-12-26T10:32:35.124Z,70.75
2017-12-26T10:33:35.467Z,70.37
2017-12-26T10:34:34.673Z,71.22
2017-12-26T10:35:34.657Z,71.6
2017-12-26T10:36:34.473Z,70.65
2017-12-26T10:37:34.730Z,69.52
2017-12-26T10:38:34.546Z,69.9
2017-12-26T10:39:34.458Z,69.9
2017-12-26T10:40:34.917Z,69.23
2017-12-26T10:41:34.676Z,69.33
2017-12-26T10:42:34.391Z,69.33
2017-12-26T10:43:34.385Z,68.29
2017-12-26T10:44:34.631Z,68.57
2017-12-26T10:45:34.345Z,69.9
2017-12-26T10:46:34.841Z,70.37
2017-12-26T10:47:34.833Z,68.38
2017-12-26T10:48:34.395Z,69.61
2017-12-26T10:49:34.452Z,71.32
2017-12-26T10:50:34.869Z,70.47
2017-12-26T10:51:34.719Z,69.23
2017-12-26T10:52:34.438Z,71.13
2017-12-26T10:53:34.382Z,70.37
2017-12-26T10:54:34.583Z,69.9
2017-12-26T10:55:34.353Z,68.98
2017-12-26T10:56:34.278Z,70.18
2017-12-26T10:57:34.266Z,68.76
2017-12-26T10:58:34.346Z,68.79
2017-12-26T10:59:34.568Z,70.12
2017-12-26T11:00:34.157Z,70.5
2017-12-26T11:01:34.117Z,69.74
2017-12-26T11:02:34.298Z,69.65
2017-12-26T11:03:34.263Z,70.5
2017-12-26T11:04:34.461Z,71.64
2017-12-26T11:05:34.063Z,71.92
2017-12-26T11:06:34.985Z,72.49
2017-12-26T11:07:34.146Z,73.16
2017-12-26T11:08:34.182Z,73.63
2017-12-26T11:09:34.181Z,73.44
2017-12-26T11:10:34.140Z,73.16
2017-12-26T11:11:34.325Z,74.2
2017-12-26T11:12:34.009Z,76.39
2017-12-26T11:13:34.402Z,75.91
2017-12-26T11:14:33.997Z,77.14
2017-12-26T11:15:34.423Z,78.19
2017-12-26T11:16:33.972Z,77.52
2017-12-26T11:17:34.261Z,78.19
2017-12-26T11:18:34.062Z,77.71
2017-12-26T11:19:34.143Z,79.04
2017-12-26T11:20:33.853Z,78.28
2017-12-26T11:21:33.840Z,78.28
2017-12-26T11:22:33.828Z,79.42
2017-12-26T11:23:33.813Z,77.9
2017-12-26T11:24:33.796Z,75.91
2017-12-26T11:25:33.784Z,76.95
2017-12-26T11:26:33.771Z,77.24
2017-12-26T11:27:34.032Z,77.14
2017-12-26T11:28:34.016Z,77.14
2017-12-26T11:29:34.002Z,76.76
2017-12-26T11:30:33.987Z,77.33
2017-12-26T11:31:33.699Z,76.57
2017-12-26T11:32:33.959Z,77.43
2017-12-26T11:33:33.675Z,77.05
2017-12-26T11:34:33.932Z,77.52
2017-12-26T11:35:33.662Z,76.95
2017-12-26T11:36:33.633Z,76.67
2017-12-26T11:37:33.618Z,75.24
2017-12-26T11:38:33.607Z,78.28
2017-12-26T11:39:33.590Z,77.9
2017-12-26T11:40:33.906Z,78.09
2017-12-26T11:41:33.850Z,77.9
2017-12-26T11:42:33.549Z,79.9
2017-12-26T11:43:33.535Z,80.46
2017-12-26T11:44:33.521Z,80.46
2017-12-26T11:45:33.779Z,81.41
2017-12-26T11:46:33.492Z,82.74
2017-12-26T11:47:33.481Z,80.75
2017-12-26T11:48:33.466Z,82.74
2017-12-26T11:49:33.451Z,83.97
2017-12-26T11:50:33.438Z,84.07
2017-12-26T11:51:33.700Z,83.22
2017-12-26T11:52:33.684Z,82.93
2017-12-26T11:53:33.670Z,82.55
2017-12-26T11:54:33.655Z,84.36
2017-12-26T11:55:33.639Z,84.45
2017-12-26T11:56:33.631Z,84.55
2017-12-26T11:57:33.340Z,83.31
2017-12-26T11:58:33.339Z,83.03
2017-12-26T11:59:33.311Z,83.59
2017-12-26T12:00:33.299Z,82.93
2017-12-26T12:01:33.287Z,82.93
2017-12-26T12:02:33.270Z,84.64
2017-12-26T12:03:33.264Z,84.83
2017-12-26T12:04:33.242Z,84.07
2017-12-26T12:05:33.515Z,84.17
2017-12-26T12:06:33.234Z,83.31
2017-12-26T12:07:33.202Z,82.74
2017-12-26T12:08:33.193Z,85.11
2017-12-26T12:09:33.174Z,84.45
2017-12-26T12:10:33.442Z,85.11
2017-12-26T12:11:33.436Z,86.39
2017-12-26T12:12:33.142Z,87.62
2017-12-26T12:13:33.118Z,87.72
2017-12-26T12:14:33.107Z,87.34
2017-12-26T12:15:33.090Z,87.82
2017-12-26T12:16:33.092Z,89.33
2017-12-26T12:17:33.064Z,88.67
2017-12-26T12:18:33.324Z,89.43
2017-12-26T12:19:33.037Z,89.62
2017-12-26T12:20:33.022Z,89.33
2017-12-26T12:21:33.297Z,89.05
2017-12-26T12:22:33.275Z,90.28
2017-12-26T12:23:33.261Z,89.33
2017-12-26T12:24:32.967Z,89.43
2017-12-26T12:25:33.231Z,90
2017-12-26T12:26:32.940Z,88.67
2017-12-26T12:27:33.203Z,92.47
2017-12-26T12:28:32.914Z,91.61
2017-12-26T12:29:33.181Z,91.61
2017-12-26T12:30:32.888Z,89.43
2017-12-26T12:31:33.152Z,90.47
2017-12-26T12:32:33.144Z,92.56
2017-12-26T12:33:32.872Z,92.9
2017-12-26T12:34:32.836Z,93.04
2017-12-26T12:35:33.094Z,92.94
2017-12-26T12:36:32.808Z,91.89
2017-12-26T12:37:33.069Z,92.28
2017-12-26T12:38:33.056Z,92.47
2017-12-26T12:39:32.768Z,91.61
2017-12-26T12:40:32.756Z,90.66
2017-12-26T12:41:32.742Z,90.57
2017-12-26T12:42:32.730Z,92.37
2017-12-26T12:43:32.717Z,90.47
2017-12-26T12:44:32.705Z,90.57
2017-12-26T12:45:32.696Z,89.72
2017-12-26T12:46:32.974Z,90.19
2017-12-26T12:47:32.665Z,90.28
2017-12-26T12:48:32.650Z,89.43
2017-12-26T12:49:32.924Z,90
2017-12-26T12:50:32.626Z,88.57
2017-12-26T12:51:32.634Z,90.47
2017-12-26T12:52:32.596Z,90.66
2017-12-26T12:53:32.584Z,89.81
2017-12-26T12:54:32.854Z,90.38
2017-12-26T12:55:32.577Z,90.38